Time;durP1;ratioP1;P1;durP2;ratioP2;P2;SDS_P1;SDS_P2;PMS_P1;PMS_P2;Temp;Humidity;BMP_temperature;BMP_pressure;BME280_temperature;BME280_humidity;BME280_pressure;Samples;Min_cycle;Max_cycle;Signal;HPM_P1;HPM_P2
2021/07/30 00:01:54;;;;;;;3.30;3.00;;;13.70;99.90;;;;;;5034967;28;20434;-64
2021/07/30 00:04:20;;;;;;;3.33;3.13;;;13.90;99.90;;;;;;5034679;28;20228;-65
2021/07/30 00:06:46;;;;;;;2.97;2.77;;;13.90;99.90;;;;;;5034594;28;20176;-65
2021/07/30 00:09:14;;;;;;;4.47;2.87;;;13.90;99.90;;;;;;5034597;28;20215;-64
2021/07/30 00:11:40;;;;;;;3.60;3.40;;;13.90;99.90;;;;;;5034615;28;20181;-64
2021/07/30 00:14:07;;;;;;;4.10;3.10;;;14.00;99.90;;;;;;5034462;28;20427;-65
2021/07/30 00:16:32;;;;;;;2.70;2.50;;;14.00;99.90;;;;;;5034281;28;20475;-64
2021/07/30 00:18:58;;;;;;;4.07;3.83;;;13.90;99.90;;;;;;5034559;28;20833;-65
2021/07/30 00:21:24;;;;;;;3.90;3.20;;;13.90;99.90;;;;;;5034576;28;20194;-64
2021/07/30 00:23:49;;;;;;;3.63;3.33;;;13.90;99.90;;;;;;5034397;28;20204;-64
2021/07/30 00:26:15;;;;;;;3.30;3.00;;;13.80;99.90;;;;;;5034038;28;20184;-64
2021/07/30 00:28:40;;;;;;;3.40;2.83;;;13.80;99.90;;;;;;5034569;28;20188;-65
2021/07/30 00:31:06;;;;;;;2.70;2.50;;;13.80;99.90;;;;;;5034511;28;20188;-64
2021/07/30 00:33:32;;;;;;;5.13;2.77;;;13.80;99.90;;;;;;5034357;28;20177;-65
2021/07/30 00:35:57;;;;;;;3.10;2.90;;;13.60;99.90;;;;;;5033811;28;20669;-65
2021/07/30 00:38:23;;;;;;;2.57;2.37;;;13.70;99.90;;;;;;5034089;28;20204;-64
2021/07/30 00:40:49;;;;;;;3.30;3.10;;;13.80;99.90;;;;;;5034325;28;20174;-64
2021/07/30 00:43:15;;;;;;;4.33;3.30;;;13.70;99.90;;;;;;5037674;28;20289;-65
2021/07/30 00:45:40;;;;;;;3.30;3.10;;;13.70;99.90;;;;;;5037840;28;20176;-65
2021/07/30 00:48:07;;;;;;;3.30;3.00;;;13.70;99.90;;;;;;5037419;28;20291;-65
2021/07/30 00:50:33;;;;;;;5.70;2.87;;;13.70;99.90;;;;;;5037822;28;20344;-64
2021/07/30 00:52:59;;;;;;;3.70;3.03;;;13.60;99.90;;;;;;5038678;28;20426;-65
2021/07/30 00:55:25;;;;;;;3.47;3.27;;;13.70;99.90;;;;;;5036118;28;20779;-64
2021/07/30 00:57:52;;;;;;;3.33;3.10;;;13.60;99.90;;;;;;5033576;28;20276;-64
2021/07/30 01:00:20;;;;;;;3.20;2.90;;;13.60;99.90;;;;;;5033811;28;20469;-64
2021/07/30 01:02:46;;;;;;;3.30;3.07;;;13.60;99.90;;;;;;5033993;28;20410;-64
2021/07/30 01:05:11;;;;;;;3.40;3.10;;;13.70;99.90;;;;;;5033878;28;20438;-64
2021/07/30 01:07:38;;;;;;;3.50;3.20;;;13.60;99.90;;;;;;5033091;28;20427;-65
2021/07/30 01:10:05;;;;;;;3.47;3.13;;;13.50;99.90;;;;;;5036295;28;20547;-64
2021/07/30 01:12:30;;;;;;;3.53;3.30;;;13.60;99.90;;;;;;5037329;28;20411;-65
2021/07/30 01:14:57;;;;;;;4.10;2.67;;;13.50;99.90;;;;;;5036821;28;20912;-65
2021/07/30 01:17:24;;;;;;;6.77;2.40;;;13.50;99.90;;;;;;5036569;28;20565;-64
2021/07/30 01:19:51;;;;;;;4.00;3.70;;;13.50;99.90;;;;;;5035868;28;20446;-64
2021/07/30 01:22:48;;;;;;;3.27;3.07;;;13.40;99.90;;;;;;5035766;28;20403;-64
2021/07/30 01:25:13;;;;;;;3.20;3.00;;;13.50;99.90;;;;;;5001026;28;20461;-64
2021/07/30 01:27:39;;;;;;;3.30;3.00;;;13.40;99.90;;;;;;5034751;28;20431;-64
2021/07/30 01:30:05;;;;;;;3.43;2.70;;;13.50;99.90;;;;;;5034400;28;20176;-64
2021/07/30 01:32:31;;;;;;;5.70;3.73;;;13.40;99.90;;;;;;5034921;28;20715;-64
2021/07/30 01:34:56;;;;;;;3.27;3.10;;;13.40;99.90;;;;;;5034459;28;20399;-64
2021/07/30 01:37:25;;;;;;;2.97;2.77;;;13.40;99.90;;;;;;5033742;28;20720;-64
2021/07/30 01:39:50;;;;;;;4.10;3.03;;;13.40;99.90;;;;;;5034588;28;20176;-65
2021/07/30 01:42:16;;;;;;;3.43;3.20;;;13.30;99.90;;;;;;5034715;28;20583;-65
2021/07/30 01:44:41;;;;;;;3.00;2.80;;;13.40;99.90;;;;;;5034559;28;20172;-65
2021/07/30 01:47:09;;;;;;;3.20;3.00;;;13.50;99.90;;;;;;5034073;28;20189;-64
2021/07/30 01:49:35;;;;;;;3.30;3.10;;;13.40;99.90;;;;;;5034296;28;20228;-64
2021/07/30 01:52:00;;;;;;;5.07;2.50;;;13.50;99.90;;;;;;5034585;28;20446;-64
2021/07/30 01:54:26;;;;;;;3.20;3.00;;;13.50;99.90;;;;;;5034467;28;20176;-64
2021/07/30 01:56:51;;;;;;;3.83;3.63;;;13.40;99.90;;;;;;5035470;28;20602;-65
2021/07/30 01:59:17;;;;;;;2.83;2.73;;;13.20;99.90;;;;;;5035497;28;20189;-64
2021/07/30 02:01:43;;;;;;;3.90;3.60;;;12.90;99.90;;;;;;5034345;28;20423;-64
2021/07/30 02:04:08;;;;;;;3.53;3.23;;;12.60;99.90;;;;;;5034338;28;20603;-64
2021/07/30 02:06:34;;;;;;;3.63;3.30;;;12.60;99.90;;;;;;5033638;28;20516;-64
2021/07/30 02:09:00;;;;;;;3.43;3.00;;;12.40;99.90;;;;;;5033806;28;20275;-65
2021/07/30 02:11:25;;;;;;;3.53;3.07;;;12.30;99.90;;;;;;5033827;28;20165;-64
2021/07/30 02:16:35;;;;;;;3.20;2.93;;;12.10;99.90;;;;;;5033014;28;20238;-65
2021/07/30 02:19:01;;;;;;;4.60;3.80;;;12.00;99.90;;;;;;5032929;28;20944;-64
2021/07/30 02:21:26;;;;;;;3.40;3.13;;;12.00;99.90;;;;;;5031863;28;20544;-64
2021/07/30 02:23:52;;;;;;;4.13;3.40;;;11.90;99.90;;;;;;5032517;28;20601;-63
2021/07/30 02:26:17;;;;;;;4.30;3.90;;;11.80;99.90;;;;;;5032124;28;20168;-64
2021/07/30 02:28:43;;;;;;;4.00;3.60;;;11.70;99.90;;;;;;5032303;28;20184;-64
2021/07/30 02:31:08;;;;;;;5.53;3.50;;;11.70;99.90;;;;;;5032465;28;20184;-63
2021/07/30 02:33:34;;;;;;;3.50;3.20;;;11.70;99.90;;;;;;5032187;28;20179;-63
2021/07/30 02:35:59;;;;;;;4.00;3.70;;;11.70;99.90;;;;;;5032244;28;20279;-64
2021/07/30 02:38:25;;;;;;;3.83;3.27;;;11.60;99.90;;;;;;5032029;28;20254;-64
2021/07/30 02:40:50;;;;;;;3.50;3.20;;;11.60;99.90;;;;;;5032197;28;20165;-64
2021/07/30 02:43:16;;;;;;;3.63;3.43;;;11.60;99.90;;;;;;5032077;28;20211;-64
2021/07/30 02:45:42;;;;;;;3.57;3.10;;;11.60;99.90;;;;;;5032182;28;20172;-64
2021/07/30 02:48:07;;;;;;;3.93;3.57;;;11.60;99.90;;;;;;5031690;28;20196;-64
2021/07/30 02:50:33;;;;;;;4.07;3.67;;;11.50;99.90;;;;;;5032225;28;20259;-64
2021/07/30 02:52:58;;;;;;;3.60;3.30;;;11.50;99.90;;;;;;5031890;28;20248;-64
2021/07/30 02:55:24;;;;;;;3.87;3.63;;;11.50;99.90;;;;;;5031966;28;20184;-64
2021/07/30 02:57:49;;;;;;;3.40;3.10;;;11.70;99.90;;;;;;5031660;28;20223;-64
2021/07/30 03:00:15;;;;;;;3.80;3.60;;;12.10;99.90;;;;;;5032045;28;20177;-63
2021/07/30 03:02:41;;;;;;;3.03;2.80;;;12.50;99.90;;;;;;5032073;28;20173;-65
2021/07/30 03:05:07;;;;;;;3.60;3.30;;;12.90;99.90;;;;;;5032422;28;20461;-65
2021/07/30 03:07:32;;;;;;;3.73;3.43;;;13.30;99.90;;;;;;5032097;28;20183;-64
2021/07/30 03:09:58;;;;;;;3.20;2.90;;;13.60;99.90;;;;;;5032257;28;20416;-64
2021/07/30 03:12:24;;;;;;;3.67;3.37;;;13.80;99.90;;;;;;5032267;28;20259;-65
2021/07/30 03:14:49;;;;;;;2.70;2.60;;;14.00;99.90;;;;;;5032451;28;20176;-64
2021/07/30 03:17:15;;;;;;;2.97;2.77;;;14.20;99.90;;;;;;5031916;28;20739;-64
2021/07/30 03:19:40;;;;;;;3.10;2.90;;;14.30;99.90;;;;;;5032950;28;20168;-63
2021/07/30 03:22:06;;;;;;;3.50;3.20;;;14.40;99.90;;;;;;5033319;28;20304;-64
2021/07/30 03:24:32;;;;;;;4.17;3.17;;;14.30;99.90;;;;;;5032786;28;20171;-65
2021/07/30 03:26:57;;;;;;;3.07;2.87;;;14.30;99.90;;;;;;5032383;28;20184;-65
2021/07/30 03:29:23;;;;;;;3.40;3.20;;;14.30;99.90;;;;;;5032671;28;20192;-63
2021/07/30 03:31:49;;;;;;;2.80;2.70;;;14.30;99.90;;;;;;5034665;28;20204;-65
2021/07/30 03:34:15;;;;;;;4.07;3.87;;;14.10;99.90;;;;;;5035632;28;20176;-64
2021/07/30 03:36:42;;;;;;;2.70;2.60;;;14.10;99.90;;;;;;5035182;28;20509;-64
2021/07/30 03:39:08;;;;;;;4.30;3.50;;;13.90;99.90;;;;;;5035408;28;20451;-64
2021/07/30 03:41:35;;;;;;;3.23;3.00;;;13.80;99.90;;;;;;5035461;28;20441;-64
2021/07/30 03:44:00;;;;;;;2.60;2.50;;;13.90;99.90;;;;;;5035330;28;20419;-64
2021/07/30 03:46:26;;;;;;;4.10;3.47;;;13.60;99.90;;;;;;5034920;28;20437;-64
2021/07/30 03:48:51;;;;;;;2.90;2.70;;;13.50;99.90;;;;;;5035200;28;20295;-64
2021/07/30 03:51:17;;;;;;;3.00;2.80;;;13.70;99.90;;;;;;5035245;28;20168;-63
2021/07/30 03:53:42;;;;;;;2.67;2.57;;;13.70;99.90;;;;;;5035152;28;20176;-64
2021/07/30 03:56:15;;;;;;;3.20;2.90;;;13.60;99.90;;;;;;5035196;28;20274;-63
2021/07/30 03:58:41;;;;;;;2.77;2.67;;;13.90;99.90;;;;;;5034893;28;20563;-64
2021/07/30 04:01:08;;;;;;;3.50;3.30;;;14.00;99.90;;;;;;5035076;28;20419;-64
2021/07/30 04:03:34;;;;;;;3.20;3.00;;;14.10;99.90;;;;;;5034900;28;20939;-63
2021/07/30 04:06:01;;;;;;;3.40;3.10;;;14.10;99.90;;;;;;5034694;28;20458;-64
2021/07/30 04:08:27;;;;;;;2.43;2.23;;;14.20;99.90;;;;;;5035487;28;20788;-64
2021/07/30 04:10:54;;;;;;;3.30;3.00;;;14.40;99.90;;;;;;5034805;28;20485;-64
2021/07/30 04:13:20;;;;;;;3.10;2.90;;;14.40;99.90;;;;;;5034692;28;20439;-64
2021/07/30 04:15:45;;;;;;;3.33;3.10;;;14.20;99.90;;;;;;5034867;28;20653;-64
2021/07/30 04:18:11;;;;;;;3.70;3.40;;;14.00;99.90;;;;;;5034370;28;20199;-64
2021/07/30 04:20:39;;;;;;;3.17;2.90;;;14.10;99.90;;;;;;5034679;28;20172;-64
2021/07/30 04:23:05;;;;;;;2.80;2.60;;;13.80;99.90;;;;;;5034651;28;20172;-64
2021/07/30 04:25:30;;;;;;;3.33;3.03;;;13.90;99.90;;;;;;5034747;28;20411;-64
2021/07/30 04:27:56;;;;;;;2.77;2.57;;;13.90;99.90;;;;;;5033975;28;20192;-65
2021/07/30 04:30:23;;;;;;;4.90;3.50;;;13.80;99.90;;;;;;5034643;28;20633;-64
2021/07/30 04:32:51;;;;;;;2.60;2.50;;;13.90;99.90;;;;;;5034525;28;20535;-64
2021/07/30 04:35:17;;;;;;;3.17;2.90;;;13.90;99.90;;;;;;5034656;28;20422;-64
2021/07/30 04:37:42;;;;;;;2.97;2.70;;;13.80;99.90;;;;;;5033853;28;20831;-64
2021/07/30 04:40:09;;;;;;;3.17;3.00;;;13.80;99.90;;;;;;5034459;28;20176;-64
2021/07/30 04:42:34;;;;;;;2.70;2.50;;;13.90;99.90;;;;;;5032619;28;20173;-64
2021/07/30 04:45:00;;;;;;;4.70;3.50;;;14.00;99.90;;;;;;5034189;28;20554;-64
2021/07/30 04:47:25;;;;;;;3.90;3.50;;;13.90;99.90;;;;;;5033963;28;20255;-64
2021/07/30 04:49:51;;;;;;;7.23;4.33;;;14.00;99.90;;;;;;5034153;28;20569;-65
2021/07/30 04:52:16;;;;;;;5.93;3.90;;;14.10;99.90;;;;;;5034177;28;20655;-64
2021/07/30 04:54:42;;;;;;;3.50;3.20;;;14.20;99.90;;;;;;5034005;28;20204;-64
2021/07/30 04:57:09;;;;;;;3.60;3.20;;;14.20;99.90;;;;;;5033644;28;20559;-64
2021/07/30 04:59:35;;;;;;;4.20;3.80;;;14.20;99.90;;;;;;5034152;28;20188;-64
2021/07/30 05:02:00;;;;;;;5.97;3.77;;;14.20;99.90;;;;;;5034211;28;20950;-64
2021/07/30 05:04:26;;;;;;;4.47;3.37;;;14.20;99.90;;;;;;5033713;28;20427;-64
2021/07/30 05:06:51;;;;;;;3.33;3.13;;;14.10;99.90;;;;;;5033576;28;20173;-65
2021/07/30 05:09:17;;;;;;;2.90;2.70;;;14.10;99.90;;;;;;5033734;28;20196;-64
2021/07/30 05:11:42;;;;;;;4.07;3.50;;;14.30;99.90;;;;;;5033743;28;20171;-64
2021/07/30 05:14:09;;;;;;;3.20;3.00;;;14.20;99.90;;;;;;5033696;28;20200;-64
2021/07/30 05:16:34;;;;;;;4.37;3.70;;;14.10;99.90;;;;;;5033465;28;20616;-64
2021/07/30 05:19:00;;;;;;;3.37;3.07;;;14.20;99.90;;;;;;5033443;28;20427;-65
2021/07/30 05:21:26;;;;;;;5.63;2.87;;;14.20;99.90;;;;;;5033634;28;20252;-64
2021/07/30 05:23:52;;;;;;;3.93;3.37;;;14.30;99.90;;;;;;5033452;28;20179;-64
2021/07/30 05:26:17;;;;;;;5.53;3.53;;;14.30;99.90;;;;;;5033120;28;20486;-64
2021/07/30 05:28:43;;;;;;;3.07;2.87;;;14.30;99.90;;;;;;5033374;28;20219;-64
2021/07/30 05:31:14;;;;;;;3.13;2.83;;;14.40;99.90;;;;;;5033522;28;20169;-64
2021/07/30 05:33:39;;;;;;;3.53;3.23;;;14.50;99.90;;;;;;5033259;28;20218;-64
2021/07/30 05:36:05;;;;;;;4.23;3.10;;;14.50;99.90;;;;;;5033007;28;20534;-64
2021/07/30 05:38:30;;;;;;;6.33;3.10;;;14.50;99.90;;;;;;5033087;28;20200;-65
2021/07/30 05:40:56;;;;;;;5.13;3.80;;;14.70;99.70;;;;;;5033077;28;20191;-64
2021/07/30 05:43:21;;;;;;;3.60;3.40;;;14.60;99.90;;;;;;5033091;28;20172;-64
2021/07/30 05:45:47;;;;;;;3.70;3.40;;;14.60;99.90;;;;;;5033105;28;20168;-64
2021/07/30 05:48:13;;;;;;;3.20;2.90;;;14.80;99.90;;;;;;5033066;28;20199;-65
2021/07/30 05:50:38;;;;;;;4.00;3.70;;;14.80;99.90;;;;;;5033318;28;20172;-64
2021/07/30 05:53:04;;;;;;;4.73;3.20;;;14.90;99.60;;;;;;5032986;28;20179;-64
2021/07/30 05:55:29;;;;;;;3.70;3.40;;;14.90;99.60;;;;;;5031674;28;20172;-64
2021/07/30 05:57:56;;;;;;;4.07;3.00;;;14.90;99.70;;;;;;5032588;28;20271;-64
2021/07/30 06:00:22;;;;;;;3.63;3.33;;;15.00;99.80;;;;;;5032977;28;20169;-64
2021/07/30 06:02:47;;;;;;;3.37;2.63;;;15.10;99.60;;;;;;5032685;28;20439;-64
2021/07/30 06:05:13;;;;;;;4.27;3.07;;;15.20;99.20;;;;;;5032670;28;20191;-64
2021/07/30 06:07:38;;;;;;;3.03;2.67;;;15.30;99.20;;;;;;5032324;28;20613;-64
2021/07/30 06:10:05;;;;;;;5.70;4.30;;;15.40;99.20;;;;;;5032480;28;20595;-64
2021/07/30 06:12:30;;;;;;;4.37;3.00;;;15.50;99.10;;;;;;5032647;28;20172;-64
2021/07/30 06:14:56;;;;;;;3.17;2.97;;;15.60;98.70;;;;;;5032468;28;20414;-65
2021/07/30 06:17:21;;;;;;;2.97;2.77;;;15.60;98.10;;;;;;5032115;28;20246;-64
2021/07/30 06:19:47;;;;;;;3.43;2.97;;;15.70;98.10;;;;;;5032411;28;20204;-64
2021/07/30 06:22:13;;;;;;;2.70;2.50;;;15.70;98.20;;;;;;5032393;28;20173;-64
2021/07/30 06:24:39;;;;;;;2.87;2.67;;;15.70;98.30;;;;;;5032203;28;20629;-64
2021/07/30 06:27:05;;;;;;;3.40;3.20;;;15.70;98.40;;;;;;5032124;28;20172;-64
2021/07/30 06:29:31;;;;;;;7.30;2.50;;;15.80;98.60;;;;;;5032195;28;20431;-64
2021/07/30 06:31:56;;;;;;;2.73;2.40;;;15.90;98.10;;;;;;5032306;28;20764;-65
2021/07/30 06:34:22;;;;;;;3.50;3.10;;;15.90;98.50;;;;;;5032051;28;20176;-64
2021/07/30 06:36:47;;;;;;;3.23;3.03;;;15.90;98.20;;;;;;5031880;28;20243;-64
2021/07/30 06:39:13;;;;;;;2.70;2.60;;;15.90;98.10;;;;;;5031808;28;20212;-64
2021/07/30 06:41:38;;;;;;;3.37;3.07;;;16.00;98.20;;;;;;5032085;28;20539;-64
2021/07/30 06:44:04;;;;;;;5.40;3.20;;;16.10;98.30;;;;;;5032110;28;20534;-65
2021/07/30 06:46:31;;;;;;;3.40;2.87;;;16.20;97.60;;;;;;5031829;28;20211;-64
2021/07/30 06:48:57;;;;;;;2.73;2.43;;;16.40;97.80;;;;;;5031943;28;20196;-65
2021/07/30 06:51:22;;;;;;;3.80;2.90;;;16.40;97.70;;;;;;5031960;28;20442;-64
2021/07/30 06:53:48;;;;;;;6.53;2.80;;;16.40;97.70;;;;;;5031851;28;20645;-65
2021/07/30 06:56:14;;;;;;;2.90;2.70;;;16.50;97.00;;;;;;5031558;28;20724;-64
2021/07/30 06:58:40;;;;;;;3.10;2.60;;;16.50;97.20;;;;;;5031809;28;20196;-65
2021/07/30 07:01:06;;;;;;;3.50;3.03;;;16.60;97.60;;;;;;5031978;28;20447;-65
2021/07/30 07:03:33;;;;;;;3.33;3.03;;;16.60;97.50;;;;;;5031862;28;20403;-64
2021/07/30 07:05:59;;;;;;;3.07;2.87;;;16.60;97.70;;;;;;5031133;28;20415;-64
2021/07/30 07:08:25;;;;;;;2.37;2.17;;;16.70;97.40;;;;;;5031548;28;20518;-64
2021/07/30 07:10:50;;;;;;;2.93;2.73;;;16.70;97.60;;;;;;5031788;28;20851;-64
2021/07/30 07:13:17;;;;;;;3.90;3.60;;;16.80;97.30;;;;;;5031745;28;20443;-64
2021/07/30 07:15:43;;;;;;;7.57;3.00;;;16.90;97.40;;;;;;5031551;28;20169;-65
2021/07/30 07:18:09;;;;;;;2.50;2.27;;;17.00;96.90;;;;;;5031411;28;20432;-64
2021/07/30 07:20:35;;;;;;;8.20;2.73;;;17.10;96.90;;;;;;5031706;28;20399;-64
2021/07/30 07:23:01;;;;;;;2.97;2.70;;;17.10;96.80;;;;;;5031402;28;20480;-65
2021/07/30 07:25:26;;;;;;;3.43;3.07;;;17.10;97.00;;;;;;5031634;28;20185;-65
2021/07/30 07:27:52;;;;;;;3.47;3.13;;;17.10;97.30;;;;;;5031428;28;20683;-64
2021/07/30 07:30:19;;;;;;;4.20;3.40;;;17.20;96.80;;;;;;5031578;28;20176;-64
2021/07/30 07:32:44;;;;;;;4.83;4.53;;;17.20;96.90;;;;;;5031945;28;20210;-64
2021/07/30 07:35:10;;;;;;;2.90;2.60;;;17.20;97.10;;;;;;5031964;28;21011;-65
2021/07/30 07:37:35;;;;;;;2.73;2.57;;;17.30;96.80;;;;;;5032270;28;20639;-65
2021/07/30 07:40:01;;;;;;;2.77;2.67;;;17.40;97.20;;;;;;5033300;28;20226;-64
2021/07/30 07:42:27;;;;;;;9.83;5.57;;;17.50;96.50;;;;;;5034743;28;20211;-64
2021/07/30 07:44:52;;;;;;;3.13;2.87;;;17.60;97.10;;;;;;5033805;28;20183;-64
2021/07/30 07:47:18;;;;;;;2.73;2.53;;;17.70;96.90;;;;;;5034212;28;20242;-64
2021/07/30 07:49:44;;;;;;;3.83;3.13;;;17.80;96.60;;;;;;5034417;28;20173;-65
2021/07/30 07:52:09;;;;;;;3.50;2.90;;;17.90;96.10;;;;;;5031243;28;20280;-65
2021/07/30 07:54:35;;;;;;;3.50;3.00;;;18.00;96.60;;;;;;5031336;28;20411;-65
2021/07/30 07:57:04;;;;;;;2.80;2.60;;;18.10;96.80;;;;;;5030948;28;20571;-65
2021/07/30 07:59:33;;;;;;;2.97;2.70;;;18.20;96.30;;;;;;5031299;28;20193;-65
2021/07/30 08:01:59;;;;;;;3.00;2.80;;;18.40;95.80;;;;;;5031251;28;20442;-65
2021/07/30 08:04:24;;;;;;;4.23;3.70;;;18.50;95.80;;;;;;5031298;28;20434;-65
2021/07/30 08:06:50;;;;;;;3.70;2.90;;;18.60;95.70;;;;;;5030839;28;20172;-65
2021/07/30 08:09:15;;;;;;;4.40;2.67;;;18.60;95.20;;;;;;5032838;28;20189;-65
2021/07/30 08:11:41;;;;;;;3.63;2.77;;;18.60;94.70;;;;;;5032824;28;20175;-64
2021/07/30 08:14:06;;;;;;;2.70;2.50;;;18.70;94.70;;;;;;5032892;28;20200;-64
2021/07/30 08:16:32;;;;;;;3.37;3.07;;;18.70;94.00;;;;;;5032518;28;20293;-65
2021/07/30 08:18:57;;;;;;;3.20;2.90;;;18.80;94.30;;;;;;5033986;28;20184;-65
2021/07/30 08:21:23;;;;;;;2.87;2.67;;;18.80;94.30;;;;;;5034814;28;20584;-64
2021/07/30 08:23:49;;;;;;;3.50;2.90;;;18.80;94.20;;;;;;5034714;28;20168;-64
2021/07/30 08:26:14;;;;;;;5.30;3.30;;;18.80;94.30;;;;;;5034288;28;20176;-64
2021/07/30 08:28:40;;;;;;;4.07;2.80;;;18.80;94.70;;;;;;5034689;28;20323;-64
2021/07/30 08:31:05;;;;;;;2.60;2.40;;;19.00;94.50;;;;;;5034485;28;20180;-65
2021/07/30 08:33:31;;;;;;;9.00;3.30;;;19.10;94.50;;;;;;5034407;28;20181;-64
2021/07/30 08:35:56;;;;;;;3.27;2.97;;;19.20;94.50;;;;;;5033948;28;20246;-67
2021/07/30 08:38:22;;;;;;;3.53;2.73;;;19.40;94.60;;;;;;5034304;28;20232;-64
2021/07/30 08:40:47;;;;;;;3.30;3.10;;;19.50;93.70;;;;;;5034664;28;20180;-64
2021/07/30 08:43:15;;;;;;;4.40;2.73;;;19.50;94.20;;;;;;5034328;28;20164;-64
2021/07/30 08:45:41;;;;;;;3.27;2.97;;;19.70;94.70;;;;;;5034178;28;20664;-64
2021/07/30 08:48:06;;;;;;;2.90;2.70;;;19.80;94.60;;;;;;5034017;28;20431;-64
2021/07/30 08:50:33;;;;;;;3.73;2.70;;;20.10;94.70;;;;;;5034039;28;20410;-64
2021/07/30 08:53:04;;;;;;;3.17;2.87;;;20.30;94.50;;;;;;5034121;28;20653;-65
2021/07/30 08:55:31;;;;;;;3.27;2.97;;;20.40;93.20;;;;;;5034246;28;20408;-65
2021/07/30 08:57:56;;;;;;;3.20;3.00;;;20.40;93.80;;;;;;5034147;28;20486;-65
2021/07/30 09:00:23;;;;;;;3.77;2.93;;;20.50;93.30;;;;;;5034022;28;20823;-65
2021/07/30 09:02:48;;;;;;;3.37;3.17;;;20.60;92.30;;;;;;5033852;28;20175;-65
2021/07/30 09:05:34;;;;;;;3.87;3.47;;;20.70;92.60;;;;;;5033913;28;20490;-65
2021/07/30 09:08:02;;;;;;;3.90;3.60;;;20.90;92.80;;;;;;5033502;28;20242;-65
2021/07/30 09:10:29;;;;;;;3.77;3.47;;;21.00;92.90;;;;;;5033757;28;20415;-65
2021/07/30 09:13:24;;;;;;;3.70;3.40;;;20.90;92.20;;;;;;5034000;28;20453;-65
2021/07/30 09:16:03;;;;;;;4.07;2.90;;;20.90;92.40;;;;;;5034233;28;20461;-65
2021/07/30 09:18:40;;;;;;;3.70;3.30;;;21.00;92.20;;;;;;5034821;28;20525;-66
2021/07/30 09:21:16;;;;;;;4.03;3.47;;;21.10;92.20;;;;;;5034639;28;20399;-65
2021/07/30 09:23:50;;;;;;;3.40;3.20;;;21.20;92.10;;;;;;5034612;28;20854;-66
2021/07/30 09:26:31;;;;;;;5.57;2.77;;;21.40;92.20;;;;;;5034573;28;20690;-66
2021/07/30 09:29:00;;;;;;;3.50;3.20;;;21.50;92.40;;;;;;5034334;28;20981;-65
2021/07/30 09:31:38;;;;;;;4.17;3.80;;;21.60;92.20;;;;;;5034528;28;20419;-65
2021/07/30 09:34:16;;;;;;;5.40;3.10;;;21.80;91.70;;;;;;5035027;28;20935;-65
2021/07/30 09:36:50;;;;;;;4.20;3.20;;;22.10;91.80;;;;;;5034063;28;20461;-66
2021/07/30 09:39:17;;;;;;;4.00;3.70;;;22.20;91.20;;;;;;5034032;28;20497;-65
2021/07/30 09:42:00;;;;;;;4.03;3.63;;;22.20;90.50;;;;;;5034821;28;20467;-65
2021/07/30 09:44:27;;;;;;;2.80;2.50;;;22.40;90.50;;;;;;5035071;28;20824;-65
2021/07/30 09:47:07;;;;;;;3.23;3.03;;;22.50;90.10;;;;;;5034635;28;20919;-65
2021/07/30 09:49:59;;;;;;;3.00;2.80;;;22.80;90.30;;;;;;5034142;28;20434;-65
2021/07/30 09:52:25;;;;;;;4.00;3.70;;;22.60;89.40;;;;;;5034553;28;20412;-65
2021/07/30 09:55:11;;;;;;;3.37;3.07;;;22.40;90.50;;;;;;5034916;28;20420;-66
2021/07/30 09:57:39;;;;;;;3.60;3.40;;;22.50;90.80;;;;;;5034260;28;20538;-66
2021/07/30 10:00:09;;;;;;;4.63;3.20;;;22.50;90.00;;;;;;5034413;28;20408;-65
2021/07/30 10:02:36;;;;;;;3.57;3.23;;;22.30;88.50;;;;;;5034020;28;20780;-65
2021/07/30 10:05:05;;;;;;;3.90;3.50;;;21.80;90.00;;;;;;5034064;28;20418;-65
2021/07/30 10:07:32;;;;;;;3.83;3.13;;;21.80;90.10;;;;;;5033318;28;20469;-66
2021/07/30 10:12:26;;;;;;;3.97;3.57;;;21.90;89.00;;;;;;5032917;28;20411;-64
2021/07/30 10:14:52;;;;;;;3.47;3.27;;;21.70;87.60;;;;;;5032912;28;20498;-64
2021/07/30 10:17:26;;;;;;;3.73;3.33;;;22.00;90.50;;;;;;5032000;28;20459;-67
2021/07/30 10:19:53;;;;;;;3.60;3.00;;;22.10;90.10;;;;;;5032186;28;20540;-65
2021/07/30 10:22:20;;;;;;;3.23;2.93;;;22.40;89.70;;;;;;5031969;28;20415;-65
2021/07/30 10:24:50;;;;;;;5.00;3.60;;;22.80;90.50;;;;;;5031455;28;20493;-65
2021/07/30 10:27:19;;;;;;;5.00;3.47;;;23.20;91.30;;;;;;5012293;28;20475;-66
2021/07/30 10:30:05;;;;;;;3.93;3.53;;;23.50;89.90;;;;;;5012583;28;20408;-65
2021/07/30 10:32:52;;;;;;;4.60;4.00;;;23.70;90.00;;;;;;5012451;28;20470;-66
2021/07/30 10:35:38;;;;;;;3.47;3.17;;;23.80;87.00;;;;;;5012713;28;20407;-65
2021/07/30 10:38:16;;;;;;;4.13;3.37;;;24.10;88.70;;;;;;5011827;28;20513;-65
2021/07/30 10:40:43;;;;;;;8.03;3.93;;;24.20;83.70;;;;;;5012026;28;20407;-66
2021/07/30 10:43:10;;;;;;;5.00;3.87;;;24.30;85.10;;;;;;5012395;28;20819;-64
2021/07/30 10:45:41;;;;;;;4.20;3.83;;;24.40;85.10;;;;;;5012370;28;20408;-65
2021/07/30 10:48:15;;;;;;;4.63;4.20;;;24.50;84.40;;;;;;5011990;28;20448;-65
2021/07/30 10:50:48;;;;;;;3.43;3.13;;;24.40;82.40;;;;;;5012320;28;20411;-65
2021/07/30 10:53:37;;;;;;;4.00;3.80;;;24.80;87.10;;;;;;5012150;28;20910;-66
2021/07/30 10:56:05;;;;;;;3.73;3.43;;;25.20;84.00;;;;;;5012083;28;20490;-65
2021/07/30 10:58:39;;;;;;;3.40;3.10;;;25.20;82.80;;;;;;5012105;28;20850;-65
2021/07/30 11:01:09;;;;;;;6.37;3.50;;;25.50;85.00;;;;;;5012219;28;20414;-65
2021/07/30 11:03:50;;;;;;;4.97;4.57;;;25.60;84.30;;;;;;5012030;28;20431;-66
2021/07/30 11:06:20;;;;;;;6.27;4.60;;;25.70;82.60;;;;;;5011890;28;20412;-64
2021/07/30 11:09:04;;;;;;;3.73;3.37;;;25.90;83.70;;;;;;5012020;28;20428;-65
2021/07/30 11:11:43;;;;;;;3.77;3.40;;;25.90;82.80;;;;;;5012073;28;20404;-65
2021/07/30 11:14:15;;;;;;;6.00;3.97;;;26.00;81.90;;;;;;5011868;28;21157;-65
2021/07/30 11:16:44;;;;;;;3.40;3.10;;;26.10;79.90;;;;;;5011731;28;20452;-65
2021/07/30 11:19:11;;;;;;;3.37;3.13;;;25.70;79.30;;;;;;5011926;28;20798;-65
2021/07/30 11:21:36;;;;;;;4.17;3.47;;;25.70;81.10;;;;;;5012064;28;20757;-65
2021/07/30 11:24:04;;;;;;;3.57;3.27;;;26.10;82.90;;;;;;5011947;28;20404;-65
2021/07/30 11:26:31;;;;;;;4.17;3.87;;;25.80;80.50;;;;;;5011726;28;20232;-65
2021/07/30 11:29:01;;;;;;;5.87;3.00;;;25.60;79.00;;;;;;5011763;28;20919;-65
2021/07/30 11:31:27;;;;;;;6.80;3.40;;;25.60;79.80;;;;;;5012107;28;20495;-66
2021/07/30 11:33:53;;;;;;;8.70;3.47;;;25.60;80.60;;;;;;5011793;28;20495;-65
2021/07/30 11:36:19;;;;;;;3.83;3.53;;;25.80;83.40;;;;;;5011593;28;20692;-65
2021/07/30 11:38:48;;;;;;;4.00;3.70;;;26.60;82.90;;;;;;5011607;28;20474;-65
2021/07/30 11:41:17;;;;;;;3.37;3.07;;;26.60;77.00;;;;;;5011690;28;20465;-65
2021/07/30 11:44:02;;;;;;;3.80;3.50;;;26.40;77.10;;;;;;5011893;28;20440;-65
2021/07/30 11:46:29;;;;;;;3.47;3.17;;;26.50;78.20;;;;;;5011651;28;20412;-66
2021/07/30 11:48:55;;;;;;;3.97;3.57;;;26.50;80.50;;;;;;5011690;28;20951;-65
2021/07/30 11:51:22;;;;;;;3.90;3.60;;;27.00;77.70;;;;;;5011880;28;20458;-65
2021/07/30 11:53:49;;;;;;;4.07;3.70;;;26.90;78.60;;;;;;5014910;28;20419;-66
2021/07/30 11:56:18;;;;;;;4.30;3.90;;;27.40;75.80;;;;;;5015264;28;20456;-65
2021/07/30 11:59:00;;;;;;;4.07;3.73;;;27.60;78.60;;;;;;5015373;28;20428;-66
2021/07/30 12:01:30;;;;;;;4.13;3.40;;;27.30;73.70;;;;;;5015543;28;20396;-65
2021/07/30 12:04:09;;;;;;;4.07;3.53;;;27.00;74.60;;;;;;5015283;28;20412;-65
2021/07/30 12:06:48;;;;;;;3.77;3.47;;;26.70;73.90;;;;;;5015126;28;20412;-65
2021/07/30 12:09:18;;;;;;;3.37;3.07;;;26.50;73.30;;;;;;5015275;28;20515;-65
2021/07/30 12:11:55;;;;;;;4.00;3.70;;;26.70;75.90;;;;;;5015321;28;20408;-65
2021/07/30 12:14:24;;;;;;;4.70;3.17;;;26.70;73.60;;;;;;5015103;28;20474;-66
2021/07/30 12:16:50;;;;;;;3.77;3.23;;;27.30;73.30;;;;;;5014693;28;20797;-65
2021/07/30 12:19:29;;;;;;;3.47;3.17;;;27.70;75.30;;;;;;5014975;28;20462;-65
2021/07/30 12:22:01;;;;;;;3.93;3.60;;;28.10;72.80;;;;;;5015132;28;20396;-65
2021/07/30 12:24:29;;;;;;;3.80;3.60;;;27.40;70.80;;;;;;5014953;28;20432;-66
2021/07/30 12:26:55;;;;;;;6.73;4.00;;;27.50;71.00;;;;;;5015134;28;20408;-65
2021/07/30 12:29:38;;;;;;;4.07;3.77;;;27.90;72.00;;;;;;5022005;28;20477;-65
2021/07/30 12:32:13;;;;;;;3.37;3.07;;;27.80;69.10;;;;;;5034628;28;20414;-65
2021/07/30 12:34:39;;;;;;;3.90;3.50;;;28.10;70.00;;;;;;5034778;28;20414;-65
2021/07/30 12:37:09;;;;;;;3.33;3.13;;;28.10;67.50;;;;;;5034321;28;20451;-65
2021/07/30 12:39:46;;;;;;;5.50;3.13;;;28.30;67.90;;;;;;5034103;28;20447;-65
2021/07/30 12:42:32;;;;;;;3.60;3.30;;;27.60;67.40;;;;;;5034701;28;20991;-65
2021/07/30 12:45:09;;;;;;;13.33;4.10;;;28.10;67.40;;;;;;5034791;28;20402;-65
2021/07/30 12:47:58;;;;;;;3.90;3.60;;;28.20;70.50;;;;;;5034308;28;20469;-65
2021/07/30 12:50:27;;;;;;;3.70;3.50;;;28.20;68.20;;;;;;5035238;28;20407;-66
2021/07/30 12:53:10;;;;;;;3.70;3.50;;;28.50;68.70;;;;;;5034655;28;20411;-65
2021/07/30 12:55:54;;;;;;;3.50;3.27;;;28.10;65.90;;;;;;5034357;28;20465;-65
2021/07/30 12:58:30;;;;;;;3.83;3.53;;;27.80;68.00;;;;;;5033767;28;20431;-66